createdAt,value
2018-10-21T00:01:05.146Z,9.20
2018-10-21T00:03:35.079Z,9.20
2018-10-21T00:06:04.856Z,9.20
2018-10-21T00:08:34.531Z,9.20
2018-10-21T00:11:04.246Z,9.20
2018-10-21T00:13:33.923Z,9.20
2018-10-21T00:16:03.810Z,9.20
2018-10-21T00:18:33.459Z,9.20
2018-10-21T00:21:03.238Z,9.30
2018-10-21T00:23:32.843Z,9.30
2018-10-21T00:26:02.598Z,9.30
2018-10-21T00:28:32.349Z,9.30
2018-10-21T00:31:02.055Z,9.40
2018-10-21T00:33:31.726Z,9.30
2018-10-21T00:36:08.113Z,9.40
2018-10-21T00:38:37.817Z,9.40
2018-10-21T00:41:07.538Z,9.30
2018-10-21T00:43:37.175Z,9.30
2018-10-21T00:46:07.122Z,9.30
2018-10-21T00:48:36.883Z,9.30
2018-10-21T00:51:06.702Z,9.30
2018-10-21T00:53:36.333Z,9.30
2018-10-21T00:56:06.199Z,9.30
2018-10-21T00:58:36.089Z,9.20
2018-10-21T01:01:05.964Z,9.20
2018-10-21T01:03:35.693Z,9.10
2018-10-21T01:06:05.515Z,9.10
2018-10-21T01:08:35.266Z,9.00
2018-10-21T01:11:05.462Z,9.00
2018-10-21T01:13:35.306Z,8.90
2018-10-21T01:16:05.337Z,8.90
2018-10-21T01:18:35.060Z,8.80
2018-10-21T01:21:05.232Z,8.70
2018-10-21T01:23:34.968Z,8.70
2018-10-21T01:26:05.051Z,8.70
2018-10-21T01:28:34.748Z,8.70
2018-10-21T01:31:04.607Z,8.70
2018-10-21T01:33:34.311Z,8.70
2018-10-21T01:36:04.029Z,8.70
2018-10-21T01:38:33.730Z,8.60
2018-10-21T01:41:03.466Z,8.60
2018-10-21T01:43:33.915Z,8.60
2018-10-21T01:46:04.583Z,8.50
2018-10-21T01:48:34.331Z,8.50
2018-10-21T01:51:04.128Z,8.50
2018-10-21T01:53:33.934Z,8.50
2018-10-21T01:56:03.829Z,8.50
2018-10-21T01:58:33.660Z,8.50
2018-10-21T02:01:03.353Z,8.40
2018-10-21T02:03:33.105Z,8.40
2018-10-21T02:06:02.845Z,8.30
2018-10-21T02:08:32.596Z,8.30
2018-10-21T02:11:03.019Z,8.40
2018-10-21T02:13:32.712Z,8.40
2018-10-21T02:16:02.393Z,8.40
2018-10-21T02:18:32.171Z,8.40
2018-10-21T02:21:01.856Z,8.40
2018-10-21T02:23:31.530Z,8.40
2018-10-21T02:26:01.253Z,8.40
2018-10-21T02:28:30.949Z,8.40
2018-10-21T02:31:00.673Z,8.40
2018-10-21T02:33:30.522Z,8.40
2018-10-21T02:36:00.103Z,8.40
2018-10-21T02:38:29.843Z,8.40
2018-10-21T02:42:19.530Z,8.40
2018-10-21T02:44:49.223Z,8.50
2018-10-21T02:47:19.032Z,8.50
2018-10-21T02:49:48.735Z,8.60
2018-10-21T02:52:18.427Z,8.50
2018-10-21T02:54:48.131Z,8.50
2018-10-21T02:57:20.534Z,8.40
2018-10-21T02:59:50.153Z,8.40
2018-10-21T03:02:19.845Z,8.30
2018-10-21T03:04:49.565Z,8.30
2018-10-21T03:07:19.297Z,8.30
2018-10-21T03:09:48.975Z,8.30
2018-10-21T03:12:18.735Z,8.30
2018-10-21T03:14:48.421Z,8.30
2018-10-21T03:17:18.132Z,8.30
2018-10-21T03:19:47.846Z,8.40
2018-10-21T03:22:17.533Z,8.50
2018-10-21T03:24:47.313Z,8.50
2018-10-21T03:27:17.049Z,8.60
2018-10-21T03:29:46.823Z,8.70
2018-10-21T03:32:16.491Z,8.70
2018-10-21T03:34:46.210Z,8.70
2018-10-21T03:37:15.960Z,8.70
2018-10-21T03:39:45.650Z,8.70
2018-10-21T03:42:15.398Z,8.70
2018-10-21T03:44:45.111Z,8.70
2018-10-21T03:47:14.802Z,8.70
2018-10-21T03:49:44.543Z,8.70
2018-10-21T03:52:14.224Z,8.70
2018-10-21T03:54:47.422Z,8.80
2018-10-21T03:57:17.174Z,8.80
2018-10-21T03:59:46.870Z,8.70
2018-10-21T04:02:16.558Z,8.70
2018-10-21T04:04:46.248Z,8.70
2018-10-21T04:07:15.966Z,8.70
2018-10-21T04:09:45.665Z,8.70
2018-10-21T04:12:15.396Z,8.70
2018-10-21T04:14:45.193Z,8.60
2018-10-21T04:17:14.889Z,8.70
2018-10-21T04:19:44.578Z,8.70
2018-10-21T04:22:14.269Z,8.70
2018-10-21T04:24:43.946Z,8.60
2018-10-21T04:27:13.679Z,8.60
2018-10-21T04:29:43.385Z,8.60
2018-10-21T04:32:13.099Z,8.50
2018-10-21T04:34:42.815Z,8.50
2018-10-21T04:38:28.746Z,8.50
2018-10-21T04:40:58.553Z,8.50
2018-10-21T04:43:28.251Z,8.60
2018-10-21T04:45:58.004Z,8.70
2018-10-21T04:48:27.686Z,8.70
2018-10-21T04:50:57.378Z,8.70
2018-10-21T04:53:27.100Z,8.70
2018-10-21T04:55:56.766Z,8.70
2018-10-21T04:58:26.613Z,8.70
2018-10-21T05:00:56.282Z,8.70
2018-10-21T05:03:25.993Z,8.70
2018-10-21T05:05:55.666Z,8.70
2018-10-21T05:08:25.435Z,8.70
2018-10-21T05:10:55.172Z,8.70
2018-10-21T05:13:24.852Z,8.70
2018-10-21T05:15:54.560Z,8.60
2018-10-21T05:18:24.234Z,8.60
2018-10-21T05:20:53.954Z,8.60
2018-10-21T05:23:23.710Z,8.60
2018-10-21T05:25:53.438Z,8.60
2018-10-21T05:28:23.122Z,8.60
2018-10-21T05:30:52.830Z,8.50
2018-10-21T05:33:22.515Z,8.50
2018-10-21T05:35:52.247Z,8.60
2018-10-21T05:38:21.922Z,8.60
2018-10-21T05:40:51.627Z,8.60
2018-10-21T05:43:21.354Z,8.60
2018-10-21T05:45:51.025Z,8.70
2018-10-21T05:48:20.754Z,8.70
2018-10-21T05:50:50.461Z,8.70
2018-10-21T05:53:20.243Z,8.70
2018-10-21T05:55:49.971Z,8.70
2018-10-21T05:58:19.695Z,8.70
2018-10-21T06:00:49.371Z,8.70
2018-10-21T06:03:19.083Z,8.60
2018-10-21T06:05:49.418Z,8.60
2018-10-21T06:08:19.123Z,8.60
2018-10-21T06:10:48.836Z,8.50
2018-10-21T06:13:18.523Z,8.50
2018-10-21T06:15:48.564Z,8.40
2018-10-21T06:18:22.473Z,8.40
2018-10-21T06:20:54.239Z,8.40
2018-10-21T06:23:23.917Z,8.40
2018-10-21T06:25:53.761Z,8.50
2018-10-21T06:28:23.645Z,8.50
2018-10-21T06:30:53.369Z,8.60
2018-10-21T06:33:23.075Z,8.60
2018-10-21T06:35:52.781Z,8.70
2018-10-21T06:38:22.513Z,8.80
2018-10-21T06:40:52.263Z,8.80
2018-10-21T06:43:22.013Z,8.90
2018-10-21T06:45:51.751Z,8.90
2018-10-21T06:48:21.484Z,9.00
2018-10-21T06:50:51.433Z,9.00
2018-10-21T06:53:21.165Z,9.00
2018-10-21T06:55:50.893Z,9.00
2018-10-21T06:58:20.731Z,9.10
2018-10-21T07:00:50.468Z,9.10
2018-10-21T07:03:20.242Z,9.20
2018-10-21T07:06:23.962Z,9.20
2018-10-21T07:08:54.935Z,9.30
2018-10-21T07:11:24.677Z,9.40
2018-10-21T07:13:54.715Z,9.50
2018-10-21T07:16:24.595Z,9.50
2018-10-21T07:18:54.408Z,9.60
2018-10-21T07:21:24.094Z,9.60
2018-10-21T07:23:53.932Z,9.70
2018-10-21T07:26:23.624Z,9.70
2018-10-21T07:28:53.484Z,9.80
2018-10-21T07:31:23.261Z,9.80
2018-10-21T07:33:52.952Z,9.80
2018-10-21T07:36:22.755Z,9.90
2018-10-21T07:38:52.406Z,10.00
2018-10-21T07:41:22.134Z,10.10
2018-10-21T07:43:51.860Z,10.10
2018-10-21T07:46:21.630Z,10.20
2018-10-21T07:48:51.375Z,10.20
2018-10-21T07:51:21.133Z,10.30
2018-10-21T07:53:51.224Z,10.30
2018-10-21T07:56:20.962Z,10.30
2018-10-21T07:58:50.671Z,10.40
2018-10-21T08:01:20.524Z,10.40
2018-10-21T08:03:50.302Z,10.40
2018-10-21T08:06:34.030Z,10.50
2018-10-21T08:09:05.688Z,10.50
2018-10-21T08:11:35.582Z,10.60
2018-10-21T08:14:05.582Z,10.60
2018-10-21T08:16:35.500Z,10.70
2018-10-21T08:19:05.807Z,10.70
2018-10-21T08:21:35.600Z,10.70
2018-10-21T08:24:05.708Z,10.70
2018-10-21T08:26:35.558Z,10.70
2018-10-21T08:29:05.584Z,10.60
2018-10-21T08:31:35.372Z,10.60
2018-10-21T08:34:05.429Z,10.60
2018-10-21T08:36:35.216Z,10.60
2018-10-21T08:39:06.763Z,10.50
2018-10-21T08:41:36.722Z,10.40
2018-10-21T08:44:06.592Z,10.50
2018-10-21T08:46:36.345Z,10.50
2018-10-21T08:49:06.414Z,10.40
2018-10-21T08:51:36.137Z,10.40
2018-10-21T08:54:06.460Z,10.50
2018-10-21T08:56:36.305Z,10.50
2018-10-21T08:59:06.297Z,10.60
2018-10-21T09:01:36.141Z,10.60
2018-10-21T09:04:06.129Z,10.70
2018-10-21T09:06:35.889Z,10.70
2018-10-21T09:09:08.213Z,10.80
2018-10-21T09:11:38.104Z,10.80
2018-10-21T09:14:07.849Z,10.90
2018-10-21T09:16:37.833Z,11.00
2018-10-21T09:19:07.612Z,11.10
2018-10-21T09:21:37.258Z,11.10
2018-10-21T09:24:07.198Z,11.20
2018-10-21T09:26:37.695Z,11.20
2018-10-21T09:29:07.678Z,11.30
2018-10-21T09:31:37.418Z,11.40
2018-10-21T09:34:07.366Z,11.40
2018-10-21T09:36:37.325Z,11.50
2018-10-21T09:39:10.541Z,11.60
2018-10-21T09:41:40.323Z,11.60
2018-10-21T09:44:10.705Z,11.70
2018-10-21T09:46:41.418Z,11.80
2018-10-21T09:49:12.058Z,11.80
2018-10-21T09:51:41.750Z,11.90
2018-10-21T09:54:11.575Z,12.00
2018-10-21T09:56:41.418Z,12.10
2018-10-21T09:59:11.249Z,12.10
2018-10-21T10:01:46.272Z,12.20
2018-10-21T10:04:16.189Z,12.20
2018-10-21T10:06:46.093Z,12.30
2018-10-21T10:09:15.913Z,12.40
2018-10-21T10:11:45.642Z,12.40
2018-10-21T10:14:15.406Z,12.50
2018-10-21T10:16:45.185Z,12.60
2018-10-21T10:19:14.984Z,12.70
2018-10-21T10:21:44.714Z,12.80
2018-10-21T10:24:14.501Z,12.80
2018-10-21T10:26:44.261Z,12.90
2018-10-21T10:29:14.047Z,13.10
2018-10-21T10:31:43.770Z,13.20
2018-10-21T10:34:13.729Z,13.40
2018-10-21T10:36:43.385Z,13.50
2018-10-21T10:39:13.156Z,13.50
2018-10-21T10:41:42.934Z,13.50
2018-10-21T10:44:12.629Z,13.40
2018-10-21T10:46:42.434Z,13.30
2018-10-21T10:49:12.285Z,13.20
2018-10-21T10:51:42.014Z,13.20
2018-10-21T10:54:11.735Z,13.20
2018-10-21T10:56:41.444Z,13.30
2018-10-21T10:59:11.243Z,13.50
2018-10-21T11:01:41.011Z,13.70
2018-10-21T11:04:10.826Z,13.90
2018-10-21T11:06:40.533Z,14.10
2018-10-21T11:09:11.126Z,14.20
2018-10-21T11:11:41.048Z,14.30
2018-10-21T11:14:10.814Z,14.50
2018-10-21T11:16:40.616Z,14.70
2018-10-21T11:19:10.353Z,14.80
2018-10-21T11:21:40.086Z,14.90
2018-10-21T11:24:09.822Z,15.10
2018-10-21T11:26:39.548Z,15.20
2018-10-21T11:29:09.414Z,15.30
2018-10-21T11:31:39.184Z,15.40
2018-10-21T11:34:08.979Z,15.40
2018-10-21T11:36:38.695Z,15.60
2018-10-21T11:39:09.210Z,15.70
2018-10-21T11:41:38.984Z,15.90
2018-10-21T11:44:08.757Z,16.00
2018-10-21T11:46:38.472Z,16.20
2018-10-21T11:49:08.220Z,16.30
2018-10-21T11:51:37.928Z,16.40
2018-10-21T11:54:07.689Z,16.70
2018-10-21T11:56:38.486Z,17.20
2018-10-21T11:59:09.235Z,17.70
2018-10-21T12:01:38.932Z,18.30
2018-10-21T12:04:08.695Z,19.00
2018-10-21T12:06:38.433Z,19.60
2018-10-21T12:09:11.005Z,20.00
2018-10-21T12:11:40.773Z,20.30
2018-10-21T12:14:11.302Z,20.40
2018-10-21T12:16:41.171Z,20.10
2018-10-21T12:19:11.058Z,19.70
2018-10-21T12:21:40.756Z,19.20
2018-10-21T12:24:10.501Z,18.70
2018-10-21T12:26:40.353Z,18.60
2018-10-21T12:29:10.084Z,18.50
2018-10-21T12:31:39.806Z,18.20
2018-10-21T12:34:09.677Z,17.70
2018-10-21T12:36:39.531Z,17.10
2018-10-21T12:39:10.335Z,16.60
2018-10-21T12:41:40.801Z,16.00
2018-10-21T12:44:10.676Z,15.70
2018-10-21T12:46:40.468Z,16.00
2018-10-21T12:49:10.426Z,16.40
2018-10-21T12:51:40.095Z,16.70
2018-10-21T12:54:10.045Z,17.10
2018-10-21T12:56:39.862Z,17.30
2018-10-21T12:59:09.884Z,17.50
2018-10-21T13:01:39.646Z,17.50
2018-10-21T13:04:09.444Z,17.60
2018-10-21T13:06:39.194Z,17.70
2018-10-21T13:09:09.690Z,17.80
2018-10-21T13:11:39.485Z,17.80
2018-10-21T13:14:09.475Z,18.00
2018-10-21T13:16:39.201Z,18.00
2018-10-21T13:19:08.997Z,18.00
2018-10-21T13:21:38.783Z,18.20
2018-10-21T13:24:08.530Z,18.40
2018-10-21T13:26:38.308Z,18.50
2018-10-21T13:29:08.077Z,18.60
2018-10-21T13:31:37.817Z,18.70
2018-10-21T13:34:07.632Z,18.90
2018-10-21T13:36:37.263Z,18.90
2018-10-21T13:39:12.099Z,19.00
2018-10-21T13:41:42.522Z,19.00
2018-10-21T13:44:12.333Z,18.90
2018-10-21T13:46:42.789Z,18.60
2018-10-21T13:49:12.716Z,18.10
2018-10-21T13:51:42.555Z,17.60
2018-10-21T13:54:12.486Z,17.10
2018-10-21T13:56:42.221Z,16.80
2018-10-21T13:59:12.066Z,16.40
2018-10-21T14:01:41.865Z,16.10
2018-10-21T14:04:11.734Z,15.90
2018-10-21T14:06:41.504Z,15.70
2018-10-21T14:09:13.015Z,15.50
2018-10-21T14:11:42.779Z,15.40
2018-10-21T14:14:12.751Z,15.30
2018-10-21T14:16:42.658Z,15.20
2018-10-21T14:19:13.220Z,15.00
2018-10-21T14:21:43.384Z,14.90
2018-10-21T14:24:13.185Z,14.60
2018-10-21T14:26:43.098Z,14.50
2018-10-21T14:29:12.763Z,14.40
2018-10-21T14:31:42.514Z,14.30
2018-10-21T14:34:12.575Z,14.20
2018-10-21T14:36:42.606Z,14.20
2018-10-21T14:39:13.384Z,14.10
2018-10-21T14:41:43.004Z,14.10
2018-10-21T14:44:12.742Z,14.10
2018-10-21T14:46:42.575Z,14.10
2018-10-21T14:49:12.433Z,14.10
2018-10-21T14:51:42.563Z,14.10
2018-10-21T14:54:12.457Z,14.10
2018-10-21T14:56:42.123Z,14.00
2018-10-21T14:59:11.853Z,14.00
2018-10-21T15:01:41.756Z,14.00
2018-10-21T15:04:11.545Z,13.90
2018-10-21T15:06:41.254Z,13.90
2018-10-21T15:09:12.915Z,13.90
2018-10-21T15:11:42.979Z,13.80
2018-10-21T15:14:13.022Z,13.70
2018-10-21T15:16:42.605Z,13.70
2018-10-21T15:19:12.339Z,13.70
2018-10-21T15:21:42.221Z,13.80
2018-10-21T15:24:12.100Z,13.70
2018-10-21T15:26:44.876Z,13.70
2018-10-21T15:29:14.690Z,13.70
2018-10-21T15:31:44.533Z,13.60
2018-10-21T15:34:14.564Z,13.40
2018-10-21T15:36:44.243Z,13.30
2018-10-21T15:39:14.109Z,13.20
2018-10-21T15:41:43.982Z,13.10
2018-10-21T15:44:13.796Z,13.00
2018-10-21T15:46:43.537Z,12.90
2018-10-21T15:49:13.691Z,12.80
2018-10-21T15:51:43.455Z,12.80
2018-10-21T15:54:13.348Z,12.60
2018-10-21T15:56:43.335Z,12.50
2018-10-21T15:59:13.039Z,12.40
2018-10-21T16:01:42.933Z,12.30
2018-10-21T16:04:12.685Z,12.20
2018-10-21T16:06:42.555Z,12.20
2018-10-21T16:09:13.288Z,12.10
2018-10-21T16:11:43.038Z,12.00
2018-10-21T16:14:13.047Z,11.90
2018-10-21T16:16:42.789Z,11.90
2018-10-21T16:19:12.532Z,11.80
2018-10-21T16:21:42.524Z,11.80
2018-10-21T16:24:12.274Z,11.70
2018-10-21T16:26:42.031Z,11.60
2018-10-21T16:29:11.914Z,11.60
2018-10-21T16:31:41.807Z,11.50
2018-10-21T16:34:11.652Z,11.40
2018-10-21T16:36:41.430Z,11.30
2018-10-21T16:39:11.731Z,11.20
2018-10-21T16:41:41.388Z,11.20
2018-10-21T16:44:11.264Z,11.10
2018-10-21T16:46:41.131Z,11.00
2018-10-21T16:49:10.960Z,11.00
2018-10-21T16:51:40.938Z,10.90
2018-10-21T16:54:10.808Z,10.80
2018-10-21T16:56:40.460Z,10.80
2018-10-21T16:59:10.367Z,10.80
2018-10-21T17:01:40.299Z,10.70
2018-10-21T17:04:10.094Z,10.60
2018-10-21T17:06:39.948Z,10.60
2018-10-21T17:09:12.194Z,10.50
2018-10-21T17:11:42.456Z,10.50
2018-10-21T17:14:12.331Z,10.50
2018-10-21T17:16:42.173Z,10.40
2018-10-21T17:19:12.006Z,10.40
2018-10-21T17:21:41.667Z,10.30
2018-10-21T17:24:11.556Z,10.30
2018-10-21T17:26:41.412Z,10.20
2018-10-21T17:29:11.195Z,10.20
2018-10-21T17:31:41.012Z,10.10
2018-10-21T17:34:10.802Z,10.10
2018-10-21T17:36:40.566Z,10.00
2018-10-21T17:39:13.126Z,9.90
2018-10-21T17:41:43.286Z,9.90
2018-10-21T17:44:13.396Z,9.80
2018-10-21T17:46:43.430Z,9.80
2018-10-21T17:49:13.274Z,9.70
2018-10-21T17:51:43.080Z,9.70
2018-10-21T17:54:12.858Z,9.70
2018-10-21T17:56:48.138Z,9.70
2018-10-21T17:59:17.947Z,9.60
2018-10-21T18:01:47.733Z,9.60
2018-10-21T18:04:17.531Z,9.50
2018-10-21T18:06:47.361Z,9.50
2018-10-21T18:09:18.172Z,9.50
2018-10-21T18:11:47.950Z,9.50
2018-10-21T18:14:17.819Z,9.40
2018-10-21T18:16:47.570Z,9.40
2018-10-21T18:19:17.372Z,9.40
2018-10-21T18:21:47.337Z,9.40
2018-10-21T18:24:18.035Z,9.30
2018-10-21T18:26:47.771Z,9.20
2018-10-21T18:29:17.978Z,9.20
2018-10-21T18:31:47.770Z,9.10
2018-10-21T18:34:17.604Z,9.10
2018-10-21T18:36:47.270Z,9.10
2018-10-21T18:39:18.054Z,9.00
2018-10-21T18:41:47.932Z,9.00
2018-10-21T18:44:17.658Z,8.90
2018-10-21T18:46:47.425Z,8.80
2018-10-21T18:49:17.295Z,8.80
2018-10-21T18:51:46.950Z,8.80
2018-10-21T18:54:16.696Z,8.80
2018-10-21T18:56:46.537Z,8.70
2018-10-21T18:59:16.526Z,8.70
2018-10-21T19:01:46.573Z,8.70
2018-10-21T19:04:16.571Z,8.70
2018-10-21T19:06:46.411Z,8.60
2018-10-21T19:09:16.219Z,8.60
2018-10-21T19:11:45.977Z,8.60
2018-10-21T19:14:15.892Z,8.60
2018-10-21T19:16:45.722Z,8.60
2018-10-21T19:19:15.567Z,8.60
2018-10-21T19:21:45.344Z,8.60
2018-10-21T19:24:15.166Z,8.60
2018-10-21T19:26:44.954Z,8.60
2018-10-21T19:29:14.849Z,8.60
2018-10-21T19:31:44.610Z,8.50
2018-10-21T19:34:14.566Z,8.60
2018-10-21T19:36:44.555Z,8.50
2018-10-21T19:39:14.493Z,8.50
2018-10-21T19:41:44.366Z,8.50
2018-10-21T19:44:14.286Z,8.40
2018-10-21T19:46:44.241Z,8.30
2018-10-21T19:49:14.123Z,8.30
2018-10-21T19:51:43.973Z,8.30
2018-10-21T19:54:13.728Z,8.30
2018-10-21T19:56:43.643Z,8.30
2018-10-21T19:59:13.402Z,8.30
2018-10-21T20:01:43.344Z,8.30
2018-10-21T20:04:13.304Z,8.20
2018-10-21T20:06:43.084Z,8.20
2018-10-21T20:09:12.848Z,8.10
2018-10-21T20:11:42.634Z,8.10
2018-10-21T20:14:12.494Z,8.00
2018-10-21T20:16:42.247Z,8.00
2018-10-21T20:19:12.116Z,8.00
2018-10-21T20:21:41.847Z,8.00
2018-10-21T20:24:11.692Z,8.00
2018-10-21T20:26:41.628Z,8.00
2018-10-21T20:29:11.420Z,8.00
2018-10-21T20:31:41.228Z,8.00
2018-10-21T20:34:11.076Z,7.90
2018-10-21T20:36:40.866Z,7.90
2018-10-21T20:39:11.103Z,7.80
2018-10-21T20:41:40.864Z,7.80
2018-10-21T20:44:10.674Z,7.80
2018-10-21T20:46:40.455Z,7.80
2018-10-21T20:49:10.277Z,7.80
2018-10-21T20:51:40.225Z,7.70
2018-10-21T20:54:10.229Z,7.70
2018-10-21T20:56:40.051Z,7.70
2018-10-21T20:59:09.751Z,7.70
2018-10-21T21:01:39.497Z,7.70
2018-10-21T21:04:09.684Z,7.60
2018-10-21T21:06:39.467Z,7.60
2018-10-21T21:09:09.543Z,7.60
2018-10-21T21:11:39.281Z,7.60
2018-10-21T21:14:09.079Z,7.60
2018-10-21T21:16:39.031Z,7.60
2018-10-21T21:19:08.741Z,7.60
2018-10-21T21:21:38.707Z,7.60
2018-10-21T21:24:08.486Z,7.60
2018-10-21T21:26:38.280Z,7.60
2018-10-21T21:29:08.160Z,7.60
2018-10-21T21:31:38.139Z,7.60
2018-10-21T21:34:08.104Z,7.60
2018-10-21T21:36:38.038Z,7.50
2018-10-21T21:39:10.414Z,7.50
2018-10-21T21:41:40.894Z,7.50
2018-10-21T21:44:10.676Z,7.50
2018-10-21T21:46:41.424Z,7.40
2018-10-21T21:49:12.167Z,7.30
2018-10-21T21:51:41.886Z,7.30
2018-10-21T21:54:13.061Z,7.30
2018-10-21T21:56:44.782Z,7.30
2018-10-21T21:59:14.505Z,7.30
2018-10-21T22:01:44.231Z,7.30
2018-10-21T22:04:14.000Z,7.20
2018-10-21T22:06:43.723Z,7.20
2018-10-21T22:09:13.820Z,7.20
2018-10-21T22:11:43.601Z,7.20
2018-10-21T22:14:13.360Z,7.20
2018-10-21T22:16:43.205Z,7.20
2018-10-21T22:19:12.915Z,7.20
2018-10-21T22:21:42.807Z,7.20
2018-10-21T22:24:12.590Z,7.10
2018-10-21T22:26:42.374Z,7.10
2018-10-21T22:29:12.062Z,7.00
2018-10-21T22:31:41.840Z,7.00
2018-10-21T22:34:11.697Z,6.90
2018-10-21T22:36:41.284Z,6.90
2018-10-21T22:39:11.161Z,6.90
2018-10-21T22:41:40.833Z,6.90
2018-10-21T22:44:10.559Z,6.80
2018-10-21T22:46:40.594Z,6.80
2018-10-21T22:49:10.244Z,6.80
2018-10-21T22:51:39.966Z,6.70
2018-10-21T22:54:09.725Z,6.80
2018-10-21T22:56:39.437Z,6.80
2018-10-21T22:59:09.126Z,6.80
2018-10-21T23:01:38.834Z,6.80
2018-10-21T23:04:08.666Z,6.70
2018-10-21T23:06:38.412Z,6.70
2018-10-21T23:09:09.497Z,6.70
2018-10-21T23:11:39.459Z,6.70
2018-10-21T23:14:09.172Z,6.60
2018-10-21T23:16:38.962Z,6.60
2018-10-21T23:19:20.211Z,6.60
2018-10-21T23:21:49.933Z,6.60
2018-10-21T23:24:19.676Z,6.60
2018-10-21T23:26:49.333Z,6.60
2018-10-21T23:29:18.994Z,6.50
2018-10-21T23:31:48.722Z,6.50
2018-10-21T23:34:18.498Z,6.40
2018-10-21T23:36:48.148Z,6.30
2018-10-21T23:39:18.685Z,6.30
2018-10-21T23:41:48.434Z,6.30
2018-10-21T23:44:18.165Z,6.30
2018-10-21T23:46:48.130Z,6.30
2018-10-21T23:49:17.791Z,6.20
2018-10-21T23:51:47.682Z,6.20
2018-10-21T23:54:18.329Z,6.20
2018-10-21T23:56:48.007Z,6.20
2018-10-21T23:59:17.709Z,6.20
